Scroll down
FLIGHT INFORMATION
Air France

AFR344

At Arrival Gate

LFPG
 CYUL
DATE: 2021-02-15
GATE: 
GATE DEPARTURE: 13:21
TAKEOFF: 13:31
DATE: 2021-02-15
GATE: G31
LANDING: 21:14
GATE ARRIVAL: 21:23
FLIGHT DATA
Crew: 
Speed: 
905 kph
Altitude: 
40,011 ft
Stage Length: 
5,523.5 km
Block Time: 
8 hrs
Flight Time: 
7.7 hrs
Fuel Used: 
47,913 kg
Cleared Route: LFPG PG263 PG264 PG265 ATREX VESAN RATUK SOVAT SANDY DET BPK POTON BEDFO EBOTO PIPIN LESTA TUMTI RODOL MCT ASNIP AGLIL PENIL BABRA GIGTO UNDUX SOPAX RAMOX OGTUG BAGSO REVNU PIKIL 5720N 5730N 5740N 5650N JANJO BOGLO 5262N 5164N ITMOM CAFRE VIVAS YRI FLEUR DEBUS IKMIK SILVI GORUX OMBRE OKOPO MAIRE DELKI UBTEG ROKTI PEKLO TAPKA MEGTU XULTA RW06L
TRACK DATA
50,000 ft 1,000 kts
AIRCRAFT INFO AND CUMULATIVE STATS
Aircraft Type: 
B772
Registration: 
SELCAL: 
EJAD
MSN/LN: 
32698 / 392
Operator: 
Total Flights: 
1
Total Block Time: 
8 hrs
Total Flight Time: 
7.7 hrs
Total Fuel Used: 
47,913 kg
DATALINK LOG | Newest first | Current as of: 2022-10-05 22:29:32
LABEL SEQUENCE CONTENT Dn/Up
QD241421:23 13.3▼ Dn
QC160621:14▼ Dn
2U4957CYYZ 152000Z 35010KT 15SM FEW035 BKN100 M05/M11 A3021 RMK CF1AC7 CF TR SLP242▲ Up
2U4957CYOW 152000Z 15004KT 080V150 15SM BKN018 BKN038 BKN200 M06/M10 A3023 RMK SC5SC2CC1 CC TR SLP247▲ Up
2U4957CYUL 152000Z 03003KT 8SM -SN SCT012 OVC120 M06/M09 A3023 RMK SF3AC5 SLP242▲ Up
2S4942CYUL CYOW CYYZ▼ Dn
GA5965GATE G31▲ Up
GR5955CYUL 21:13 MAAS 00 YP/UM 00/00 WCHR/S/C 01/00/01 HI-VAL NO DIPL/VIP NO▼ Dn
2U5105CYYZ 151900Z 01009KT 15SM FEW035 BKN100 BKN250 M05/M10 A3020 RMK CU1AC4CI2 SLP239▲ Up
2U5105CYOW 151933Z 12003KT 090V150 15SM BKN018 BKN031 BKN220 M06/M10 A3022 RMK SC5SC1CI1 SLP244▲ Up
2U5105CYUL 151927Z 04004KT 2SM -SN FEW020 OVC040 M06/M08 A3023 RMK SC1SC7 PRESFR SLP240▲ Up
2S5147CYUL CYOW CYYZ▼ Dn
QB430713:31▼ Dn
QA373613:21 119▼ Dn
2U1614LFPG 151400Z 20012KT 9999 BKN025 BKN090 07/03 Q1025 NOSIG▲ Up
2S3231LFPG▼ Dn
Q02827[LINK ACK]▲ Up
Q02827[LINK TEST]▼ Dn
QB451613:42▼ Dn
QA340513:31 119▼ Dn
2U1508LFPG 151300Z 19013KT 9999 BKN034 BKN090 07/02 Q1025 NOSIG▲ Up
2S1749LFPG▼ Dn
2S1549LFPG▼ Dn
A30749CLEARED TO CYUL VIA ATREX4D ATREX UT225 VESAN UL613 SOVAT L613 SANDY UN601 LESTA UP6 RODOL UL28 PENIL M144 BAGSO DCT REVNU DCT PIKIL NATA JANJO DCT BOGLO DCT 5262N DCT 5164N DCT ITMOM DCT CAFRE DCT VIVAS DCT YRI J546 FLEUR DCT DEBUS OMBRE8. SQUAWK 7313.▲ Up
B30739LFPG CYUL LFPG FGSPX A ▼ Dn
Q00133[LINK ACK]▲ Up
Q00133[LINK TEST]▼ Dn


AIRCRAFT HISTORY
FLIGHT DATE FLIGHT NO. ORIGIN DESTINATION CLEARED ROUTE BLOCK TIME FLIGHT TIME FUEL USED PILOT
2021-02-15AFR344LFPG CYUL LFPG PG263 PG264 PG265 ATREX VESAN RATUK SOVAT SANDY DET BPK POTON BEDFO EBOTO PIPIN LESTA TUMTI RODOL MCT ASNIP AGLIL PENIL BABRA GIGTO UNDUX SOPAX RAMOX OGTUG BAGSO REVNU PIKIL 5720N 5730N 5740N 5650N JANJO BOGLO 5262N 5164N ITMOM CAFRE VIVAS YRI FLEUR DEBUS IKMIK SILVI GORUX OMBRE OKOPO MAIRE DELKI UBTEG ROKTI PEKLO TAPKA MEGTU XULTA RW06L8 hrs7.7 hrs105,631 lbEmanuel Hagen